createdAt,value
2022-08-05T00:01:36.090Z,99117.59
2022-08-05T00:04:16.513Z,99110.97
2022-08-05T00:06:43.687Z,99097.44
2022-08-05T00:09:12.685Z,99105.72
2022-08-05T00:11:48.343Z,99102.41
2022-08-05T00:14:17.393Z,99109.25
2022-08-05T00:16:52.836Z,99109.19
2022-08-05T00:19:24.862Z,99102.56
2022-08-05T00:22:00.582Z,99102.88
2022-08-05T00:24:30.888Z,99107.34
2022-08-05T00:26:59.066Z,99103.75
2022-08-05T00:29:27.628Z,99113.81
2022-08-05T00:32:13.530Z,99105.38
2022-08-05T00:35:04.018Z,99113.12
2022-08-05T00:37:51.176Z,99113.81
2022-08-05T00:40:28.190Z,99110.09
2022-08-05T00:42:57.234Z,99113.12
2022-08-05T00:45:28.171Z,99106.22
2022-08-05T00:48:16.710Z,99109.72
2022-08-05T00:50:46.057Z,99111.41
2022-08-05T00:53:59.959Z,99107.41
2022-08-05T00:56:07.962Z,99109.03
2022-08-05T00:58:35.429Z,99099.00
2022-08-05T01:01:05.898Z,99093.47
2022-08-05T01:03:37.513Z,99087.56
2022-08-05T01:06:05.574Z,99093.63
2022-08-05T01:08:42.935Z,99093.69
2022-08-05T01:11:13.638Z,99093.25
2022-08-05T01:13:58.335Z,99091.53
2022-08-05T01:16:33.008Z,99093.53
2022-08-05T01:19:01.871Z,99089.38
2022-08-05T01:21:38.243Z,99084.59
2022-08-05T01:24:13.221Z,99083.75
2022-08-05T01:26:48.513Z,99091.00
2022-08-05T01:29:25.427Z,99091.69
2022-08-05T01:31:54.513Z,99091.06
2022-08-05T01:34:30.931Z,99091.47
2022-08-05T01:37:06.356Z,99087.34
2022-08-05T01:39:47.130Z,99094.34
2022-08-05T01:42:16.658Z,99095.34
2022-08-05T01:44:44.118Z,99094.75
2022-08-05T01:47:12.920Z,99102.75
2022-08-05T01:50:02.106Z,99101.19
2022-08-05T01:52:28.667Z,99100.81
2022-08-05T01:54:58.304Z,99096.69
2022-08-05T01:58:29.496Z,99096.69
2022-08-05T02:00:30.356Z,99099.03
2022-08-05T02:02:59.546Z,99093.53
2022-08-05T02:05:34.340Z,99097.19
2022-08-05T02:08:03.665Z,99092.41
2022-08-05T02:10:42.156Z,99089.50
2022-08-05T02:13:16.157Z,99088.38
2022-08-05T02:15:50.803Z,99092.53
2022-08-05T02:18:33.210Z,99091.22
2022-08-05T02:21:05.752Z,99093.56
2022-08-05T02:23:41.477Z,99090.12
2022-08-05T02:26:09.668Z,99092.16
2022-08-05T02:28:41.673Z,99089.28
2022-08-05T02:31:23.658Z,99089.41
2022-08-05T02:33:57.808Z,99093.16
2022-08-05T02:36:27.596Z,99089.50
2022-08-05T02:38:55.376Z,99090.03
2022-08-05T02:41:28.417Z,99084.88
2022-08-05T02:44:02.726Z,99080.41
2022-08-05T02:46:53.595Z,99076.09
2022-08-05T02:49:27.645Z,99086.19
2022-08-05T02:52:13.581Z,99092.31
2022-08-05T02:54:57.927Z,99084.69
2022-08-05T02:58:11.667Z,99086.66
2022-08-05T03:00:16.531Z,99090.16
2022-08-05T03:02:44.696Z,99084.91
2022-08-05T03:05:12.033Z,99080.53
2022-08-05T03:08:01.213Z,99078.94
2022-08-05T03:10:27.390Z,99074.84
2022-08-05T03:12:55.178Z,99073.38
2022-08-05T03:15:23.270Z,99072.28
2022-08-05T03:17:56.030Z,99068.47
2022-08-05T03:20:25.225Z,99068.44
2022-08-05T03:22:52.827Z,99064.56
2022-08-05T03:25:33.586Z,99060.41
2022-08-05T03:28:08.516Z,99061.81
2022-08-05T03:30:35.924Z,99062.87
2022-08-05T03:33:03.940Z,99058.06
2022-08-05T03:35:34.031Z,99058.94
2022-08-05T03:38:10.964Z,99059.47
2022-08-05T03:40:45.327Z,99063.63
2022-08-05T03:43:58.840Z,99057.31
2022-08-05T03:46:02.528Z,99060.97
2022-08-05T03:48:30.027Z,99057.31
2022-08-05T03:52:37.774Z,99061.03
2022-08-05T03:55:54.685Z,99056.06
2022-08-05T03:56:43.477Z,99064.28
2022-08-05T03:59:15.171Z,99058.19
2022-08-05T04:01:48.508Z,99059.91
2022-08-05T04:04:16.867Z,99060.31
2022-08-05T04:06:51.174Z,99061.91
2022-08-05T04:09:25.918Z,99063.94
2022-08-05T04:11:56.851Z,99066.53
2022-08-05T04:14:30.462Z,99060.09
2022-08-05T04:17:02.977Z,99067.78
2022-08-05T04:19:30.676Z,99063.50
2022-08-05T04:22:09.132Z,99064.13
2022-08-05T04:24:43.865Z,99059.12
2022-08-05T04:27:15.284Z,99059.69
2022-08-05T04:29:42.872Z,99054.41
2022-08-05T04:32:10.268Z,99053.16
2022-08-05T04:34:42.660Z,99054.81
2022-08-05T04:37:10.990Z,99051.81
2022-08-05T04:39:39.139Z,99050.19
2022-08-05T04:42:07.445Z,99057.63
2022-08-05T04:44:36.507Z,99050.31
2022-08-05T04:47:09.400Z,99055.31
2022-08-05T04:50:01.848Z,99052.06
2022-08-05T04:52:27.696Z,99057.44
2022-08-05T04:54:57.419Z,99054.50
2022-08-05T04:57:28.729Z,99058.81
2022-08-05T04:59:58.660Z,99058.75
2022-08-05T05:02:36.282Z,99057.72
2022-08-05T05:05:16.563Z,99063.03
2022-08-05T05:07:56.663Z,99057.88
2022-08-05T05:10:29.553Z,99054.34
2022-08-05T05:12:57.718Z,99054.25
2022-08-05T05:15:56.252Z,99050.47
2022-08-05T05:18:14.924Z,99057.19
2022-08-05T05:20:55.725Z,99059.12
2022-08-05T05:23:25.780Z,99064.97
2022-08-05T05:25:52.926Z,99061.94
2022-08-05T05:28:20.122Z,99057.28
2022-08-05T05:30:49.567Z,99053.09
2022-08-05T05:33:23.434Z,99050.97
2022-08-05T05:35:51.031Z,99055.94
2022-08-05T05:38:26.965Z,99054.41
2022-08-05T05:40:55.891Z,99051.25
2022-08-05T05:43:56.536Z,99046.44
2022-08-05T05:46:16.325Z,99053.94
2022-08-05T05:48:47.729Z,99048.50
2022-08-05T05:51:22.630Z,99048.34
2022-08-05T05:53:57.239Z,99042.09
2022-08-05T05:56:32.708Z,99044.62
2022-08-05T05:59:05.407Z,99040.25
2022-08-05T06:01:38.912Z,99046.94
2022-08-05T06:04:08.305Z,99044.91
2022-08-05T06:06:41.821Z,99051.59
2022-08-05T06:09:09.542Z,99040.91
2022-08-05T06:11:59.527Z,99043.25
2022-08-05T06:14:33.253Z,99052.78
2022-08-05T06:17:22.608Z,99052.78
2022-08-05T06:19:57.190Z,99054.66
2022-08-05T06:22:30.406Z,99052.25
2022-08-05T06:25:01.882Z,99058.00
2022-08-05T06:28:10.411Z,99051.22
2022-08-05T06:30:36.419Z,99046.38
2022-08-05T06:33:03.607Z,99051.72
2022-08-05T06:36:07.160Z,99044.31
2022-08-05T06:38:18.694Z,99047.50
2022-08-05T06:41:04.411Z,99051.31
2022-08-05T06:43:51.769Z,99041.63
2022-08-05T06:46:19.130Z,99047.87
2022-08-05T06:48:56.557Z,99055.72
2022-08-05T06:51:30.263Z,99055.94
2022-08-05T06:53:59.019Z,99055.34
2022-08-05T06:56:27.107Z,99052.56
2022-08-05T06:58:54.753Z,99050.53
2022-08-05T07:01:22.821Z,99050.22
2022-08-05T07:03:50.154Z,99061.13
2022-08-05T07:06:20.615Z,99054.25
2022-08-05T07:08:51.778Z,99067.00
2022-08-05T07:11:25.350Z,99059.50
2022-08-05T07:14:15.588Z,99071.56
2022-08-05T07:18:00.755Z,99072.13
2022-08-05T07:20:16.857Z,99060.00
2022-08-05T07:22:29.188Z,99060.31
2022-08-05T07:24:58.528Z,99056.06
2022-08-05T07:27:27.575Z,99064.03
2022-08-05T07:30:27.725Z,99053.94
2022-08-05T07:32:57.717Z,99049.94
2022-08-05T07:36:03.520Z,99050.25
2022-08-05T07:38:26.337Z,99051.25
2022-08-05T07:41:16.784Z,99057.09
2022-08-05T07:43:46.941Z,99048.78
2022-08-05T07:46:24.274Z,99054.59
2022-08-05T07:49:03.505Z,99047.81
2022-08-05T07:51:41.130Z,99041.44
2022-08-05T07:54:26.413Z,99041.63
2022-08-05T07:57:13.312Z,99055.87
2022-08-05T07:59:41.517Z,99048.13
2022-08-05T08:02:15.958Z,99045.94
2022-08-05T08:04:48.556Z,99051.72
2022-08-05T08:07:17.871Z,99050.69
2022-08-05T08:09:46.074Z,99048.09
2022-08-05T08:12:33.267Z,99051.53
2022-08-05T08:15:04.531Z,99041.81
2022-08-05T08:17:32.441Z,99044.53
2022-08-05T08:20:22.413Z,99045.72
2022-08-05T08:22:54.234Z,99045.84
2022-08-05T08:25:26.875Z,99044.72
2022-08-05T08:28:18.044Z,99050.66
2022-08-05T08:30:47.807Z,99050.28
2022-08-05T08:33:17.622Z,99041.28
2022-08-05T08:35:52.817Z,99044.06
2022-08-05T08:38:35.363Z,99036.38
2022-08-05T08:41:05.070Z,99046.38
2022-08-05T08:45:16.431Z,99040.00
2022-08-05T08:46:21.340Z,99043.28
2022-08-05T08:49:06.329Z,99045.66
2022-08-05T08:52:04.247Z,99039.34
2022-08-05T08:54:27.395Z,99042.44
2022-08-05T08:56:56.425Z,99036.88
2022-08-05T08:59:27.904Z,99044.56
2022-08-05T09:02:02.112Z,99036.03
2022-08-05T09:04:31.578Z,99035.47
2022-08-05T09:06:58.891Z,99038.34
2022-08-05T09:09:34.861Z,99037.72
2022-08-05T09:12:20.228Z,99031.38
2022-08-05T09:14:58.275Z,99027.09
2022-08-05T09:17:40.698Z,99025.06
2022-08-05T09:20:11.158Z,99031.69
2022-08-05T09:23:04.855Z,99027.09
2022-08-05T09:26:00.854Z,99027.69
2022-08-05T09:28:23.394Z,99019.63
2022-08-05T09:30:55.171Z,99012.25
2022-08-05T09:33:23.648Z,99015.22
2022-08-05T09:36:11.841Z,99012.31
2022-08-05T09:38:56.252Z,99008.25
2022-08-05T09:41:24.717Z,99005.69
2022-08-05T09:43:53.214Z,99009.91
2022-08-05T09:46:27.457Z,99009.41
2022-08-05T09:49:08.024Z,99002.59
2022-08-05T09:51:49.385Z,99002.69
2022-08-05T09:54:21.350Z,99000.25
2022-08-05T09:56:57.349Z,98993.25
2022-08-05T09:59:27.569Z,98992.41
2022-08-05T10:01:58.530Z,98987.19
2022-08-05T10:04:34.954Z,98979.81
2022-08-05T10:07:06.073Z,98980.41
2022-08-05T10:10:14.460Z,98982.16
2022-08-05T10:12:49.731Z,98984.63
2022-08-05T10:15:20.374Z,98981.59
2022-08-05T10:18:03.491Z,98969.66
2022-08-05T10:20:32.004Z,98974.41
2022-08-05T10:23:01.053Z,98971.37
2022-08-05T10:25:28.352Z,98961.72
2022-08-05T10:28:13.936Z,98955.22
2022-08-05T10:32:47.342Z,98951.63
2022-08-05T10:33:35.150Z,98945.88
2022-08-05T10:36:04.502Z,98951.72
2022-08-05T10:38:33.334Z,98957.97
2022-08-05T10:41:06.943Z,98950.63
2022-08-05T10:43:47.393Z,98946.56
2022-08-05T10:46:17.030Z,98953.50
2022-08-05T10:48:52.762Z,98943.56
2022-08-05T10:51:29.404Z,98936.91
2022-08-05T10:53:58.505Z,98945.00
2022-08-05T10:56:29.595Z,98941.44
2022-08-05T10:59:07.303Z,98942.66
2022-08-05T11:01:54.750Z,98939.53
2022-08-05T11:04:30.920Z,98924.53
2022-08-05T11:07:04.478Z,98927.94
2022-08-05T11:09:45.770Z,98933.56
2022-08-05T11:12:27.126Z,98936.91
2022-08-05T11:15:20.222Z,98928.88
2022-08-05T11:17:59.261Z,98932.84
2022-08-05T11:20:39.286Z,98933.53
2022-08-05T11:23:33.273Z,98915.03
2022-08-05T11:26:11.921Z,98919.72
2022-08-05T11:28:39.807Z,98919.06
2022-08-05T11:31:07.684Z,98917.75
2022-08-05T11:33:47.951Z,98909.38
2022-08-05T11:36:34.723Z,98917.84
2022-08-05T11:39:05.715Z,98919.00
2022-08-05T11:41:54.641Z,98929.44
2022-08-05T11:44:40.123Z,98930.56
2022-08-05T11:47:14.186Z,98906.50
2022-08-05T11:49:51.162Z,98914.97
2022-08-05T11:52:29.386Z,98927.44
2022-08-05T11:54:57.723Z,98926.09
2022-08-05T11:57:30.708Z,98912.34
2022-08-05T12:00:13.316Z,98912.66
2022-08-05T12:02:40.493Z,98912.63
2022-08-05T12:05:32.388Z,98911.31
2022-08-05T12:08:09.770Z,98918.13
2022-08-05T12:10:45.826Z,98907.25
2022-08-05T12:13:28.091Z,98909.63
2022-08-05T12:16:14.558Z,98904.94
2022-08-05T12:18:49.477Z,98913.59
2022-08-05T12:21:30.196Z,98906.25
2022-08-05T12:24:04.877Z,98908.25
2022-08-05T12:26:38.738Z,98909.25
2022-08-05T12:29:09.539Z,98893.44
2022-08-05T12:31:45.978Z,98902.87
2022-08-05T12:34:21.382Z,98894.69
2022-08-05T12:36:52.242Z,98894.22
2022-08-05T12:39:19.552Z,98895.75
2022-08-05T12:41:46.803Z,98892.34
2022-08-05T12:44:21.563Z,98893.69
2022-08-05T12:46:59.741Z,98897.66
2022-08-05T12:50:03.936Z,98897.56
2022-08-05T12:52:33.893Z,98888.63
2022-08-05T12:55:23.625Z,98885.06
2022-08-05T12:58:49.310Z,98888.34
2022-08-05T13:01:59.948Z,98880.78
2022-08-05T13:03:32.463Z,98876.22
2022-08-05T13:06:01.486Z,98879.25
2022-08-05T13:08:32.997Z,98881.59
2022-08-05T13:11:01.125Z,98865.84
2022-08-05T13:14:04.929Z,98871.00
2022-08-05T13:16:17.092Z,98867.47
2022-08-05T13:18:50.898Z,98863.50
2022-08-05T13:21:18.336Z,98853.28
2022-08-05T13:23:52.145Z,98859.25
2022-08-05T13:26:24.079Z,98855.56
2022-08-05T13:28:57.603Z,98851.00
2022-08-05T13:31:33.714Z,98849.59
2022-08-05T13:34:21.583Z,98848.97
2022-08-05T13:36:51.113Z,98835.91
2022-08-05T13:40:14.661Z,98833.13
2022-08-05T13:42:05.932Z,98837.59
2022-08-05T13:44:34.735Z,98838.78
2022-08-05T13:47:08.403Z,98827.63
2022-08-05T13:49:36.416Z,98829.59
2022-08-05T13:52:10.609Z,98820.53
2022-08-05T13:54:38.537Z,98821.84
2022-08-05T13:57:06.975Z,98823.22
2022-08-05T13:59:34.448Z,98818.44
2022-08-05T14:02:03.645Z,98817.25
2022-08-05T14:04:51.619Z,98817.41
2022-08-05T14:07:59.920Z,98825.50
2022-08-05T14:10:19.270Z,98811.66
2022-08-05T14:12:55.462Z,98807.81
2022-08-05T14:16:08.193Z,98806.00
2022-08-05T14:18:17.591Z,98806.25
2022-08-05T14:20:47.910Z,98801.16
2022-08-05T14:23:24.076Z,98793.59
2022-08-05T14:25:54.552Z,98789.16
2022-08-05T14:28:26.501Z,98792.06
2022-08-05T14:30:55.023Z,98790.00
2022-08-05T14:33:23.343Z,98796.31
2022-08-05T14:35:51.980Z,98793.06
2022-08-05T14:38:32.979Z,98794.28
2022-08-05T14:41:06.186Z,98787.53
2022-08-05T14:43:51.593Z,98785.59
2022-08-05T14:46:28.789Z,98798.78
2022-08-05T14:48:57.774Z,98784.75
2022-08-05T14:51:30.658Z,98781.37
2022-08-05T14:54:06.925Z,98775.56
2022-08-05T14:56:46.968Z,98778.00
2022-08-05T14:59:15.909Z,98771.56
2022-08-05T15:01:49.209Z,98771.31
2022-08-05T15:04:20.735Z,98774.22
2022-08-05T15:06:52.915Z,98773.06
2022-08-05T15:09:51.890Z,98769.62
2022-08-05T15:12:08.893Z,98760.31
2022-08-05T15:14:48.266Z,98764.63
2022-08-05T15:17:46.405Z,98774.47
2022-08-05T15:20:06.102Z,98766.72
2022-08-05T15:22:33.259Z,98760.16
2022-08-05T15:25:00.700Z,98759.19
2022-08-05T15:27:43.025Z,98751.97
2022-08-05T15:30:19.334Z,98757.06
2022-08-05T15:32:47.264Z,98752.06
2022-08-05T15:35:17.030Z,98757.34
2022-08-05T15:38:32.667Z,98752.91
2022-08-05T15:41:03.432Z,98753.00
2022-08-05T15:43:20.139Z,98748.81
2022-08-05T15:46:00.818Z,98739.97
2022-08-05T15:48:28.963Z,98739.19
2022-08-05T15:50:56.584Z,98738.31
2022-08-05T15:53:26.477Z,98744.41
2022-08-05T15:56:09.138Z,98738.66
2022-08-05T15:58:41.362Z,98732.91
2022-08-05T16:01:17.134Z,98737.44
2022-08-05T16:03:48.315Z,98739.81
2022-08-05T16:06:16.095Z,98732.44
2022-08-05T16:08:51.019Z,98732.97
2022-08-05T16:11:42.900Z,98741.00
2022-08-05T16:14:09.337Z,98742.34
2022-08-05T16:16:36.530Z,98739.19
2022-08-05T16:19:04.218Z,98741.38
2022-08-05T16:22:00.277Z,98749.00
2022-08-05T16:24:40.443Z,98741.72
2022-08-05T16:27:07.286Z,98749.28
2022-08-05T16:29:37.032Z,98746.13
2022-08-05T16:32:06.409Z,98750.66
2022-08-05T16:34:34.047Z,98743.91
2022-08-05T16:37:01.218Z,98743.94
2022-08-05T16:40:04.698Z,98745.97
2022-08-05T16:42:19.450Z,98744.63
2022-08-05T16:44:56.936Z,98739.28
2022-08-05T16:47:29.130Z,98739.94
2022-08-05T16:50:04.196Z,98734.56
2022-08-05T16:52:33.501Z,98734.63
2022-08-05T16:55:00.908Z,98728.19
2022-08-05T16:57:53.658Z,98732.38
2022-08-05T17:00:25.998Z,98730.84
2022-08-05T17:03:02.938Z,98736.22
2022-08-05T17:05:31.428Z,98745.03
2022-08-05T17:07:59.257Z,98742.22
2022-08-05T17:10:30.514Z,98738.22
2022-08-05T17:12:58.411Z,98738.31
2022-08-05T17:15:29.422Z,98743.37
2022-08-05T17:18:14.323Z,98740.84
2022-08-05T17:20:42.326Z,98743.91
2022-08-05T17:24:02.953Z,98739.81
2022-08-05T17:25:58.983Z,98750.87
2022-08-05T17:28:26.263Z,98741.41
2022-08-05T17:30:56.188Z,98750.34
2022-08-05T17:33:23.729Z,98748.34
2022-08-05T17:36:07.581Z,98750.19
2022-08-05T17:38:37.717Z,98753.78
2022-08-05T17:41:11.602Z,98745.28
2022-08-05T17:43:55.709Z,98750.03
2022-08-05T17:46:23.737Z,98749.66
2022-08-05T17:48:50.900Z,98756.13
2022-08-05T17:51:21.354Z,98754.91
2022-08-05T17:53:50.701Z,98748.34
2022-08-05T17:56:22.837Z,98745.94
2022-08-05T17:58:51.096Z,98747.31
2022-08-05T18:01:18.685Z,98755.44
2022-08-05T18:03:58.444Z,98760.03
2022-08-05T18:06:31.078Z,98754.94
2022-08-05T18:08:58.860Z,98758.16
2022-08-05T18:11:32.485Z,98754.97
2022-08-05T18:14:03.547Z,98756.28
2022-08-05T18:16:31.827Z,98756.81
2022-08-05T18:18:58.966Z,98754.78
2022-08-05T18:21:28.157Z,98740.88
2022-08-05T18:24:14.447Z,98751.91
2022-08-05T18:26:42.077Z,98752.00
2022-08-05T18:29:11.125Z,98756.56
2022-08-05T18:31:38.531Z,98743.87
2022-08-05T18:34:12.247Z,98750.81
2022-08-05T18:36:41.350Z,98754.34
2022-08-05T18:39:42.314Z,98758.06
2022-08-05T18:42:06.139Z,98768.19
2022-08-05T18:44:48.963Z,98764.25
2022-08-05T18:47:18.676Z,98765.81
2022-08-05T18:50:10.780Z,98772.53
2022-08-05T18:52:50.795Z,98770.84
2022-08-05T18:55:19.524Z,98771.16
2022-08-05T18:57:53.518Z,98769.94
2022-08-05T19:00:28.580Z,98771.75
2022-08-05T19:02:57.532Z,98772.78
2022-08-05T19:06:12.566Z,98771.19
2022-08-05T19:08:18.734Z,98779.38
2022-08-05T19:10:46.388Z,98773.37
2022-08-05T19:13:15.936Z,98778.66
2022-08-05T19:15:58.876Z,98783.44
2022-08-05T19:18:29.110Z,98781.22
2022-08-05T19:20:56.632Z,98783.69
2022-08-05T19:24:07.341Z,98794.81
2022-08-05T19:26:12.136Z,98781.25
2022-08-05T19:28:43.283Z,98776.97
2022-08-05T19:31:13.482Z,98786.47
2022-08-05T19:33:48.387Z,98780.06
2022-08-05T19:36:24.185Z,98792.84
2022-08-05T19:38:53.400Z,98789.91
2022-08-05T19:41:21.906Z,98788.53
2022-08-05T19:44:05.445Z,98783.72
2022-08-05T19:46:39.382Z,98780.31
2022-08-05T19:49:25.217Z,98778.56
2022-08-05T19:52:06.181Z,98774.13
2022-08-05T19:54:41.239Z,98780.38
2022-08-05T19:57:10.137Z,98776.31
2022-08-05T19:59:55.552Z,98778.06
2022-08-05T20:02:27.264Z,98781.69
2022-08-05T20:04:58.530Z,98782.00
2022-08-05T20:07:47.157Z,98779.97
2022-08-05T20:10:17.390Z,98772.13
2022-08-05T20:12:48.122Z,98779.69
2022-08-05T20:15:23.082Z,98779.28
2022-08-05T20:18:10.532Z,98784.94
2022-08-05T20:20:56.589Z,98780.56
2022-08-05T20:23:40.480Z,98779.25
2022-08-05T20:26:15.251Z,98787.44
2022-08-05T20:28:44.217Z,98791.06
2022-08-05T20:31:12.209Z,98796.75
2022-08-05T20:33:42.465Z,98796.75
2022-08-05T20:36:10.115Z,98797.06
2022-08-05T20:38:39.221Z,98796.06
2022-08-05T20:41:24.025Z,98797.34
2022-08-05T20:43:58.744Z,98798.81
2022-08-05T20:46:28.738Z,98803.16
2022-08-05T20:48:56.156Z,98811.19
2022-08-05T20:51:23.749Z,98810.66
2022-08-05T20:53:56.360Z,98818.72
2022-08-05T20:56:28.100Z,98817.44
2022-08-05T20:58:56.245Z,98817.25
2022-08-05T21:01:38.616Z,98815.81
2022-08-05T21:04:10.323Z,98823.44
2022-08-05T21:06:45.147Z,98816.50
2022-08-05T21:09:15.987Z,98816.81
2022-08-05T21:12:06.970Z,98818.06
2022-08-05T21:14:34.785Z,98818.09
2022-08-05T21:17:05.396Z,98815.19
2022-08-05T21:19:46.898Z,98811.53
2022-08-05T21:22:18.316Z,98818.66
2022-08-05T21:24:49.020Z,98830.56
2022-08-05T21:27:25.412Z,98824.47
2022-08-05T21:29:57.660Z,98820.19
2022-08-05T21:32:27.218Z,98825.03
2022-08-05T21:35:08.421Z,98825.59
2022-08-05T21:37:46.998Z,98825.84
2022-08-05T21:40:16.565Z,98827.59
2022-08-05T21:42:45.630Z,98826.75
2022-08-05T21:45:17.621Z,98829.13
2022-08-05T21:47:56.254Z,98829.84
2022-08-05T21:50:25.495Z,98829.69
2022-08-05T21:52:53.400Z,98834.81
2022-08-05T21:55:42.787Z,98828.72
2022-08-05T21:58:10.274Z,98832.25
2022-08-05T22:00:40.031Z,98839.06
2022-08-05T22:03:09.927Z,98832.97
2022-08-05T22:05:48.781Z,98831.34
2022-08-05T22:08:22.515Z,98834.75
2022-08-05T22:10:53.538Z,98827.37
2022-08-05T22:14:19.710Z,98834.50
2022-08-05T22:16:32.305Z,98834.84
2022-08-05T22:18:58.707Z,98830.47
2022-08-05T22:21:26.129Z,98826.78
2022-08-05T22:24:13.205Z,98837.88
2022-08-05T22:27:18.355Z,98836.84
2022-08-05T22:29:46.069Z,98834.16
2022-08-05T22:32:17.361Z,98833.84
2022-08-05T22:34:50.180Z,98836.16
2022-08-05T22:37:17.617Z,98833.31
2022-08-05T22:39:45.568Z,98833.31
2022-08-05T22:42:25.274Z,98831.47
2022-08-05T22:44:56.396Z,98825.63
2022-08-05T22:47:29.347Z,98826.91
2022-08-05T22:50:17.597Z,98821.31
2022-08-05T22:52:49.028Z,98829.75
2022-08-05T22:55:19.221Z,98823.53
2022-08-05T22:57:49.010Z,98821.22
2022-08-05T23:00:18.330Z,98829.66
2022-08-05T23:02:48.555Z,98821.53
2022-08-05T23:05:15.954Z,98821.88
2022-08-05T23:07:44.814Z,98814.53
2022-08-05T23:10:13.202Z,98821.84
2022-08-05T23:12:40.423Z,98817.06
2022-08-05T23:15:11.909Z,98825.91
2022-08-05T23:18:00.689Z,98817.31
2022-08-05T23:20:26.561Z,98820.75
2022-08-05T23:22:55.821Z,98820.75
2022-08-05T23:25:53.204Z,98825.41
2022-08-05T23:28:11.977Z,98817.56
2022-08-05T23:30:39.772Z,98812.53
2022-08-05T23:33:16.347Z,98823.59
2022-08-05T23:35:56.059Z,98821.88
2022-08-05T23:38:26.071Z,98811.31
2022-08-05T23:40:54.339Z,98810.34
2022-08-05T23:43:25.350Z,98810.91
2022-08-05T23:46:19.994Z,98809.81
2022-08-05T23:48:59.943Z,98806.41
2022-08-05T23:51:54.367Z,98806.41
2022-08-05T23:54:25.247Z,98802.84
2022-08-05T23:56:55.028Z,98803.28
2022-08-05T23:59:22.947Z,98801.19
